Timur Yershov

Scout - Kolomna
30 Sep 2027
Donnerstag
Verarbeitung

Persönlichkeit

Anpassungsfähigkeit (5) Ehrgeiz (19) Kontroverse (8) Loyalität (19) Druck (18) Professionalität (10) Fairness (17) Temperament (1)

Profil

Trainerstil Demokratisch
Lizenz Kontinentale A
Entschlossenheit 2
Menschenführung 4
Motivation 1
Disziplin 6
Arbeitszufriedenheit
92%
Ermüdung
0%
Rolle Scout
Gehalt 12.7K p/W
Vertrag 14.03.2028

Leistung

Verhalten Gut
Trainingseffektivität
13%
Spielerentwicklung
5%
Verletzungsprävention
5%
Taktische Umsetzung
20%

Letzte Ereignisse

Nahm an einer Scouting-Besprechung teil 7T her
Spiel beobachtet 7T her
Spiel beobachtet 7T her
Spiel beobachtet 7T her
Spiel beobachtet 14T her
Spiel beobachtet 14T her
Spiel beobachtet 14T her
Spiel beobachtet 14T her

Aktuell beobachtet

115
Spieler Verein Status Fähigkeit Vertrauen Beobachtet Zuletzt beobachtet Letzte Stimme
Ilya Vikhrov Belshina Aktiv 83 / 65 40% 1 11.09.2027 -
Ivan Mokshin Ostrovets Aktiv 74 / 72 40% 1 11.09.2027 -
Nikita Karpuk Ostrovets Aktiv 74 / 85 40% 2 08.09.2027 -
Nicolás Brun Montevideo City Torque Aktiv 86 / 92 40% 1 08.09.2027 -
Franco Rodríguez Los Andes Aktiv 120 / 117 40% 1 08.09.2027 -
Artem Kilyimanov Ostrovets Aktiv 78 / 71 40% 1 08.09.2027 -
Aron Agüero Maipú Aktiv 96 / 98 40% 1 06.09.2027 -
Nikita Golyakevich Smorgon Aktiv 81 / 79 40% 1 06.09.2027 -
Milton Cantero Talleres Aktiv 86 / 84 40% 1 04.09.2027 -
Brian Guerra Chaco For Ever Aktiv 124 / 108 40% 1 04.09.2027 -
Peter Grance Martínez San Miguel Aktiv 96 / 99 40% 1 03.09.2027 -
Juan José Vásquez Union Magdalena Aktiv 105 / 74 40% 1 03.09.2027 -
Franco Quiroz All Boys Aktiv 103 / 95 40% 1 02.09.2027 -
Ian López Tacuarembo Aktiv 94 / 100 40% 1 02.09.2027 -
Óscar Rojas Trujillanos Aktiv 85 / 84 40% 2 01.09.2027 -
Denis Rudenok Orsha Aktiv 67 / 71 40% 1 01.09.2027 -
Tomás Ramírez Morón Aktiv 125 / 97 40% 1 01.09.2027 -
Makar Litskevich Volna Pinsk Aktiv 82 / 79 40% 1 01.09.2027 -
Federico Marín Colegiales Aktiv 89 / 119 40% 1 26.08.2027 -
Ignatiy Sidor Slutsk Aktiv 66 / 86 40% 1 26.08.2027 -
Alexis Melo All Boys Aktiv 114 / 123 40% 1 25.08.2027 -
Rady Yamlikhanov Slonim Aktiv 87 / 92 40% 1 25.08.2027 -
Julián Marcioni Colón Aktiv 111 / 106 40% 1 24.08.2027 -
Iván Barbona Colón Aktiv 87 / 84 40% 1 24.08.2027 -
Alexandr Konev Slonim Aktiv 67 / 80 40% 1 23.08.2027 -
Agustín Aleo Central Norte Aktiv 116 / 123 40% 1 20.08.2027 -
Daniil Podbereznyi Niva Aktiv 64 / 76 40% 1 18.08.2027 -
Juan Román Gimenez Estudiantes Aktiv 88 / 95 40% 1 18.08.2027 -
Luciano Paredes Maipú Aktiv 110 / 109 40% 1 17.08.2027 -
Elías Contreras Morón Aktiv 117 / 93 40% 1 17.08.2027 -
Pavel Sedich Dnepr Mogilev Aktiv 60 / 72 40% 1 16.08.2027 -
Manuel Muzzio Estudiantes Aktiv 95 / 97 40% 1 16.08.2027 -
Alexandr Kuradovets Volna Pinsk Aktiv 60 / 62 40% 1 16.08.2027 -
Artem Glyak Osipovichi Aktiv 49 / 66 40% 1 16.08.2027 -
Santiago Camacho Estudiantes Aktiv 103 / 103 40% 1 14.08.2027 -
José Mosquera Alianza Petrolera Aktiv 99 / 95 40% 1 12.08.2027 -
Roman Kozel Niva Aktiv 79 / 76 40% 1 12.08.2027 -
Tomás Lecanda Agropecuario Argentino Aktiv 108 / 127 40% 1 11.08.2027 -
Alikhan Fazylov Bumprom Gomel Aktiv 79 / 77 40% 1 11.08.2027 -
Kirill Kovalevich Volna Pinsk Aktiv 84 / 91 40% 1 10.08.2027 -
Vadim Fastovets Bumprom Gomel Aktiv 73 / 71 40% 1 10.08.2027 -
Nikita Mayorov Gomel Aktiv 83 / 74 40% 1 03.08.2027 -
Yegor Yegorov KDV Tomsk Aktiv 49 / 48 55% 1 05.07.2027 -
Kirill Bogdanets Volna Aktiv 100 / 84 40% 1 13.06.2027 -
Maxim Sergeev Spartak Tambov Aktiv 85 / 80 40% 1 13.06.2027 -
Nikita Ponomarev Salyut Aktiv 93 / 86 40% 1 11.06.2027 -
Maxim Khramtsov Rotor Aktiv 105 / 103 40% 1 09.06.2027 -
Hugo Palacios Union Magdalena Aktiv 110 / 120 40% 1 07.06.2027 -
Ville Nilsson Metallurg Aktiv 83 / 88 40% 1 31.05.2027 -
Juan Salas Patronato Aktiv 105 / 101 40% 1 28.05.2027 -
Giorgi Kantaria Neftekhimik Aktiv 105 / 108 40% 1 28.05.2027 -
Daniil Agureev Amkar Aktiv 102 / 92 40% 1 24.05.2027 -
Anton Sinyak Sokol Aktiv 101 / 76 40% 1 23.05.2027 -
Amir Djumaev Nart Aktiv 68 / 73 40% 1 21.05.2027 -
Daniil Kornyushin Shinnik Aktiv 101 / 94 40% 1 21.05.2027 -
Matvey Ivanov Zenit Aktiv 66 / 87 40% 1 18.05.2027 -
Nikita Demchenko Spartak Kostroma Aktiv 90 / 89 40% 1 15.05.2027 -
Marcelo Matzuda Chertanovo Aktiv 67 / 86 40% 1 15.05.2027 -
Gabriel Leiva Dinamo St Petersburg Aktiv 88 / 79 40% 2 12.05.2027 -
Ben Jackson Barrow AFC Aktiv 86 / 110 40% 1 12.05.2027 -
Ellis Taylor Harrogate Town Aktiv 90 / 85 40% 1 09.05.2027 -
Danila Matvevnin Kosmos Aktiv 81 / 84 40% 3 08.05.2027 -
Mevran Ablak Angusht Aktiv 90 / 66 40% 1 08.05.2027 -
Alexandr Galimov Luki-Energiya Aktiv 80 / 70 40% 2 07.05.2027 -
Mikhail Gainov Dinamo Stavropol Aktiv 85 / 91 40% 2 07.05.2027 -
Nikita Kireev Dinamo Vologda Aktiv 87 / 85 40% 1 04.05.2027 -
Nikolay Maximov Krylya Sovetov Aktiv 72 / 70 40% 1 04.05.2027 -
Ayanda Vete Strogino Aktiv 64 / 70 40% 1 29.04.2027 -
Dmitry Sasin Sokol Aktiv 94 / 100 40% 1 25.04.2027 -
Alexandr Kanischev Salyut Aktiv 91 / 80 40% 1 25.04.2027 -
Artem Medvedev Dinamo Bryansk Aktiv 76 / 75 40% 1 24.04.2027 -
Ruslan Cherviakov Spartak Kostroma Aktiv 87 / 100 40% 1 24.04.2027 -
Rassambek Akhmatov KAMAZ Aktiv 104 / 100 40% 1 22.04.2027 -
Ilja Mamkin Luki-Energiya Aktiv 82 / 67 40% 1 20.04.2027 -
Nico Valentine Doncaster Rovers Aktiv 105 / 80 40% 1 20.04.2027 -
Artem Malakhov Sokol Aktiv 103 / 77 40% 1 19.04.2027 -
Islamzhan Nasyrov Ryazan Aktiv 103 / 79 40% 1 14.04.2027 -
Vitaly Dunay (Karpenko) Chaika Aktiv 99 / 100 40% 1 14.04.2027 -
Nikita Yershov Kosmos Aktiv 79 / 87 40% 1 13.04.2027 -
Danila Sukhomlinov Neftekhimik Aktiv 83 / 99 40% 1 12.04.2027 -
Nikolay Boyarkin Salyut Aktiv 89 / 75 40% 1 11.04.2027 -
Rustam Asenchukov Rostov Aktiv 62 / 62 40% 1 11.04.2027 -
Anton Betyuzhnov Dinamo Vologda Aktiv 88 / 77 40% 1 10.04.2027 -
Ivan Sutugin Khimik Aktiv 90 / 81 40% 1 06.04.2027 -
Yury Mozzhukhin Saturn Aktiv 49 / 74 55% 1 15.02.2027 -
Pavel Gorelov Rotor Aktiv 88 / 95 40% 1 24.01.2027 -
Artur Cherny Shinnik Aktiv 97 / 90 40% 1 24.01.2027 -
Augusto Bottini Almirante Brown Aktiv 115 / 118 40% 1 21.01.2027 -
Julián Lobelos Arsenal Aktiv 90 / 117 40% 1 20.01.2027 -
Dmitry Rebrov Volna Abgelehnt 88 / 76 40% 1 20.01.2027 Mehr Infos nötig
Vladislav Yampolskiy Volgar Aktiv 79 / 91 40% 3 19.01.2027 -
Alexandr Ryabinkin Textilschik Aktiv 77 / 81 40% 1 15.01.2027 -
Roman Anikeev Dinamo Vologda Aktiv 57 / 66 40% 2 29.12.2026 -
Vyacheslav Shataev Tver Aktiv 65 / 59 40% 3 28.12.2026 -
David Sangaré Ryazan Aktiv 90 / 96 40% 1 28.12.2026 -
Artem Krent Slavia Mozyr Aktiv 76 / 70 40% 1 27.12.2026 -
Alexey Kenyaikin Rubin Aktiv 108 / 107 40% 1 27.12.2026 -
Daniel Clemente Chertanovo Aktiv 62 / 66 40% 3 22.12.2026 -
Joaquín Bigo Tristán Suárez Aktiv 94 / 93 40% 1 08.12.2026 -
Timofey Kashintsev Neftekhimik Aktiv 84 / 105 40% 1 07.12.2026 -
David Byazrov Alania Aktiv 91 / 92 40% 1 06.12.2026 -
Timur Kraikov Sokol Aktiv 97 / 95 40% 2 03.12.2026 -
Vladimir Pavlov Saturn Aktiv 64 / 88 40% 1 03.12.2026 -
Leon Borković Irkutsk Aktiv 79 / 66 40% 1 01.12.2026 -
Ivan Litvenok Angusht Aktiv 60 / 69 40% 1 30.11.2026 -
Petr Kosarevskiy Sibir Aktiv 95 / 104 40% 1 28.11.2026 -
Bogatyr Razhbudinov Dinamo Makhachkala Aktiv 45 / 64 40% 1 28.11.2026 -
Roman Raifegerste Khimik Aktiv 69 / 80 40% 1 27.11.2026 -
Andrey Bondar' Spartak Tambov Aktiv 79 / 73 40% 1 27.11.2026 -
Vadim Averkiev Orel Abgelehnt 91 / 79 40% 1 17.11.2026 Mehr Infos nötig
Anton Shitov Dinamo Vladivostok Aktiv 69 / 69 40% 1 08.11.2026 -
Maxim Azarko Dnepr Mogilev Aktiv 90 / 70 40% 1 07.11.2026 -
Maxim Yablonskiy Molodechno Aktiv 97 / 86 40% 1 02.08.2026 -
Guillermo Enrique Huracán Aktiv 104 / 103 40% 1 02.08.2026 -
Rauno Sappinen Flora Aktiv 106 / 100 40% 1 01.08.2026 -